Presidio, Texas
Current Conditions -  °F | °C
As of 8:55 AM on Thursday 30 Oct 2014 (Local Time) from KPRS Reporting Station
Clear Clear  
Wind Chill: 64°   Ceiling: Unl
Heat Index: 64°   Visibility: 10mi
Dew Point: 55°   Wind: 6mph
Humidity: 70%   Direction: 330°NNW
Pressure: 30.16"   Gusts: NA
Location:  29.56°N, 104.37°W
Report Text: KPRS 301355Z AUTO 33005KT 10SM CLR 18/13 A3016 RMK AO2 T01800125
Loading
Personal Weather Stations






























Interactive Weather Map
Tropical Storm Tracking
New forecast layout! Learn more

10-Day Weather Forecast

Advertisements
Track Severe Weather on mobile